aviador You're here:

LFQA Decoded Metar

REIMS in FRANCE
Report Time2017-08-18 23:30:00
UTC Time2017-08-18 23:51:11
Flight Rules vfr VFR
Wind340° at 03 kt
W.Decomp.*RWY 25: 3.0 kt RCW
W.Rank340° ranks 14
Current wind is below 340° avg. (5.9)
Visibility9999 m
Phenomena:N/A
Clouds:N/A
CeilingNone
Temp11°C (ISA -3)
Dew Point11°C (100% RH)
AAT10.2°C
QNH1018 hPa
Density Alt-82 ft
Elevation312 ft
Report Wrong Elevation
Raw Report
METAR LFQA 182330Z AUTO 34003KT CAVOK 11/11 Q1018=

Extra information for LFQA:More info

Metar Taf Metar & Taf Last 4 Metars F.Rules Stats Wind Profile Meteogram Temp Stats Airport Information Weather charts Add Link Nearby VenuesMetar ALERT Operation Metar Decoded Social comments